sensor_id;sensor_type;location;lat;lon;timestamp;P1;durP1;ratioP1;P2;durP2;ratioP2
17866;SDS011;9059;49.934;8.650;2023-02-26T00:00:23;4.50;;;1.10;;
17866;SDS011;9059;49.934;8.650;2023-02-26T00:01:27;4.67;;;1.23;;
17866;SDS011;9059;49.934;8.650;2023-02-26T00:02:31;3.90;;;0.83;;
17866;SDS011;9059;49.934;8.650;2023-02-26T00:03:33;5.30;;;1.10;;
17866;SDS011;9059;49.934;8.650;2023-02-26T00:04:35;4.37;;;0.90;;
17866;SDS011;9059;49.934;8.650;2023-02-26T00:05:37;3.80;;;0.80;;
17866;SDS011;9059;49.934;8.650;2023-02-26T00:06:40;2.30;;;1.00;;
17866;SDS011;9059;49.934;8.650;2023-02-26T00:07:53;3.63;;;0.90;;
17866;SDS011;9059;49.934;8.650;2023-02-26T00:08:57;1.20;;;0.60;;
17866;SDS011;9059;49.934;8.650;2023-02-26T00:09:59;1.60;;;0.67;;
17866;SDS011;9059;49.934;8.650;2023-02-26T00:11:05;4.00;;;1.00;;
17866;SDS011;9059;49.934;8.650;2023-02-26T00:12:09;2.40;;;0.50;;
17866;SDS011;9059;49.934;8.650;2023-02-26T00:13:12;1.40;;;0.80;;
17866;SDS011;9059;49.934;8.650;2023-02-26T00:14:14;5.10;;;1.00;;
17866;SDS011;9059;49.934;8.650;2023-02-26T00:15:18;1.30;;;0.80;;
17866;SDS011;9059;49.934;8.650;2023-02-26T00:16:23;0.73;;;0.50;;
17866;SDS011;9059;49.934;8.650;2023-02-26T00:17:31;3.67;;;0.70;;
17866;SDS011;9059;49.934;8.650;2023-02-26T00:18:36;1.20;;;0.73;;
17866;SDS011;9059;49.934;8.650;2023-02-26T00:19:40;2.37;;;0.80;;
17866;SDS011;9059;49.934;8.650;2023-02-26T00:20:42;2.83;;;0.87;;
17866;SDS011;9059;49.934;8.650;2023-02-26T00:21:45;1.53;;;0.80;;
17866;SDS011;9059;49.934;8.650;2023-02-26T00:22:47;3.67;;;0.80;;
17866;SDS011;9059;49.934;8.650;2023-02-26T00:23:50;3.93;;;0.80;;
17866;SDS011;9059;49.934;8.650;2023-02-26T00:24:54;3.20;;;0.80;;
17866;SDS011;9059;49.934;8.650;2023-02-26T00:25:57;2.20;;;0.77;;
17866;SDS011;9059;49.934;8.650;2023-02-26T00:26:59;1.93;;;0.70;;
17866;SDS011;9059;49.934;8.650;2023-02-26T00:28:01;2.13;;;0.73;;
17866;SDS011;9059;49.934;8.650;2023-02-26T00:29:04;3.33;;;0.80;;
17866;SDS011;9059;49.934;8.650;2023-02-26T00:30:07;1.20;;;0.50;;
17866;SDS011;9059;49.934;8.650;2023-02-26T00:31:10;0.80;;;0.70;;
17866;SDS011;9059;49.934;8.650;2023-02-26T00:32:15;2.30;;;0.70;;
17866;SDS011;9059;49.934;8.650;2023-02-26T00:33:18;1.53;;;0.70;;
17866;SDS011;9059;49.934;8.650;2023-02-26T00:34:22;2.73;;;0.70;;
17866;SDS011;9059;49.934;8.650;2023-02-26T00:35:24;1.80;;;0.80;;
17866;SDS011;9059;49.934;8.650;2023-02-26T00:36:28;1.53;;;0.70;;
17866;SDS011;9059;49.934;8.650;2023-02-26T00:37:37;2.13;;;0.70;;
17866;SDS011;9059;49.934;8.650;2023-02-26T00:38:55;1.47;;;0.63;;
17866;SDS011;9059;49.934;8.650;2023-02-26T00:40:07;2.80;;;0.83;;
17866;SDS011;9059;49.934;8.650;2023-02-26T00:41:16;3.57;;;0.90;;
17866;SDS011;9059;49.934;8.650;2023-02-26T00:42:18;1.57;;;0.70;;
17866;SDS011;9059;49.934;8.650;2023-02-26T00:43:22;1.40;;;0.73;;
17866;SDS011;9059;49.934;8.650;2023-02-26T00:44:26;3.77;;;1.10;;
17866;SDS011;9059;49.934;8.650;2023-02-26T00:45:29;3.40;;;0.97;;
17866;SDS011;9059;49.934;8.650;2023-02-26T00:46:35;2.87;;;1.00;;
17866;SDS011;9059;49.934;8.650;2023-02-26T00:47:42;4.13;;;1.00;;
17866;SDS011;9059;49.934;8.650;2023-02-26T00:48:51;2.07;;;0.90;;
17866;SDS011;9059;49.934;8.650;2023-02-26T00:50:01;2.77;;;1.00;;
17866;SDS011;9059;49.934;8.650;2023-02-26T00:51:07;1.03;;;0.63;;
17866;SDS011;9059;49.934;8.650;2023-02-26T00:52:14;2.37;;;0.83;;
17866;SDS011;9059;49.934;8.650;2023-02-26T00:53:23;4.73;;;1.00;;
17866;SDS011;9059;49.934;8.650;2023-02-26T00:54:29;3.10;;;0.90;;
17866;SDS011;9059;49.934;8.650;2023-02-26T00:55:32;3.63;;;1.03;;
17866;SDS011;9059;49.934;8.650;2023-02-26T00:56:35;2.00;;;0.90;;
17866;SDS011;9059;49.934;8.650;2023-02-26T00:57:37;4.13;;;0.83;;
17866;SDS011;9059;49.934;8.650;2023-02-26T00:58:40;3.53;;;0.90;;
17866;SDS011;9059;49.934;8.650;2023-02-26T00:59:43;3.20;;;1.00;;
17866;SDS011;9059;49.934;8.650;2023-02-26T01:00:45;2.27;;;0.97;;
17866;SDS011;9059;49.934;8.650;2023-02-26T01:01:47;2.60;;;0.80;;
17866;SDS011;9059;49.934;8.650;2023-02-26T01:02:50;3.10;;;1.03;;
17866;SDS011;9059;49.934;8.650;2023-02-26T01:03:54;2.53;;;0.87;;
17866;SDS011;9059;49.934;8.650;2023-02-26T01:04:56;3.20;;;1.00;;
17866;SDS011;9059;49.934;8.650;2023-02-26T01:05:59;3.03;;;0.90;;
17866;SDS011;9059;49.934;8.650;2023-02-26T01:07:01;1.53;;;0.80;;
17866;SDS011;9059;49.934;8.650;2023-02-26T01:08:07;1.50;;;0.73;;
17866;SDS011;9059;49.934;8.650;2023-02-26T01:09:15;2.37;;;0.90;;
17866;SDS011;9059;49.934;8.650;2023-02-26T01:10:23;2.70;;;1.20;;
17866;SDS011;9059;49.934;8.650;2023-02-26T01:11:26;5.60;;;1.00;;
17866;SDS011;9059;49.934;8.650;2023-02-26T01:12:29;2.03;;;1.00;;
17866;SDS011;9059;49.934;8.650;2023-02-26T01:13:32;3.33;;;1.00;;
17866;SDS011;9059;49.934;8.650;2023-02-26T01:14:35;4.10;;;1.20;;
17866;SDS011;9059;49.934;8.650;2023-02-26T01:15:39;4.27;;;1.10;;
17866;SDS011;9059;49.934;8.650;2023-02-26T01:16:47;5.53;;;1.10;;
17866;SDS011;9059;49.934;8.650;2023-02-26T01:17:52;4.70;;;1.13;;
17866;SDS011;9059;49.934;8.650;2023-02-26T01:18:58;3.30;;;1.27;;
17866;SDS011;9059;49.934;8.650;2023-02-26T01:20:05;4.20;;;1.10;;
17866;SDS011;9059;49.934;8.650;2023-02-26T01:21:12;5.00;;;1.30;;
17866;SDS011;9059;49.934;8.650;2023-02-26T01:22:17;5.40;;;1.10;;
17866;SDS011;9059;49.934;8.650;2023-02-26T01:23:23;5.03;;;1.10;;
17866;SDS011;9059;49.934;8.650;2023-02-26T01:24:26;7.93;;;1.30;;
17866;SDS011;9059;49.934;8.650;2023-02-26T01:25:34;1.93;;;0.93;;
17866;SDS011;9059;49.934;8.650;2023-02-26T01:26:40;3.77;;;1.10;;
17866;SDS011;9059;49.934;8.650;2023-02-26T01:27:42;3.53;;;1.30;;
17866;SDS011;9059;49.934;8.650;2023-02-26T01:28:45;3.50;;;1.40;;
17866;SDS011;9059;49.934;8.650;2023-02-26T01:29:47;4.60;;;1.37;;
17866;SDS011;9059;49.934;8.650;2023-02-26T01:30:51;5.97;;;1.57;;
17866;SDS011;9059;49.934;8.650;2023-02-26T01:31:56;2.70;;;1.43;;
17866;SDS011;9059;49.934;8.650;2023-02-26T01:33:06;2.90;;;1.37;;
17866;SDS011;9059;49.934;8.650;2023-02-26T01:34:12;6.97;;;1.10;;
17866;SDS011;9059;49.934;8.650;2023-02-26T01:35:21;1.70;;;1.00;;
17866;SDS011;9059;49.934;8.650;2023-02-26T01:36:30;3.40;;;1.30;;
17866;SDS011;9059;49.934;8.650;2023-02-26T01:37:38;4.67;;;1.17;;
17866;SDS011;9059;49.934;8.650;2023-02-26T01:38:46;3.60;;;1.23;;
17866;SDS011;9059;49.934;8.650;2023-02-26T01:40:02;3.63;;;1.10;;
17866;SDS011;9059;49.934;8.650;2023-02-26T01:41:24;4.53;;;1.27;;
17866;SDS011;9059;49.934;8.650;2023-02-26T01:42:32;4.33;;;1.00;;
17866;SDS011;9059;49.934;8.650;2023-02-26T01:43:38;1.80;;;1.00;;
17866;SDS011;9059;49.934;8.650;2023-02-26T01:44:49;2.67;;;0.80;;
17866;SDS011;9059;49.934;8.650;2023-02-26T01:45:58;2.10;;;1.10;;
17866;SDS011;9059;49.934;8.650;2023-02-26T01:47:09;2.20;;;0.87;;
17866;SDS011;9059;49.934;8.650;2023-02-26T01:48:17;3.67;;;1.03;;
17866;SDS011;9059;49.934;8.650;2023-02-26T01:49:22;2.57;;;1.03;;
17866;SDS011;9059;49.934;8.650;2023-02-26T01:50:26;3.07;;;1.10;;
17866;SDS011;9059;49.934;8.650;2023-02-26T01:51:41;2.87;;;0.97;;
17866;SDS011;9059;49.934;8.650;2023-02-26T01:54:19;4.87;;;1.43;;
17866;SDS011;9059;49.934;8.650;2023-02-26T01:55:23;4.70;;;1.53;;
17866;SDS011;9059;49.934;8.650;2023-02-26T01:56:26;6.83;;;1.40;;
17866;SDS011;9059;49.934;8.650;2023-02-26T01:57:29;2.90;;;1.40;;
17866;SDS011;9059;49.934;8.650;2023-02-26T01:58:33;5.30;;;1.70;;
17866;SDS011;9059;49.934;8.650;2023-02-26T01:59:37;7.60;;;1.50;;
17866;SDS011;9059;49.934;8.650;2023-02-26T02:00:41;6.27;;;1.90;;
17866;SDS011;9059;49.934;8.650;2023-02-26T02:01:44;3.40;;;1.60;;
17866;SDS011;9059;49.934;8.650;2023-02-26T02:02:46;7.43;;;1.77;;
17866;SDS011;9059;49.934;8.650;2023-02-26T02:03:48;6.93;;;2.00;;
17866;SDS011;9059;49.934;8.650;2023-02-26T02:04:50;4.10;;;1.43;;
17866;SDS011;9059;49.934;8.650;2023-02-26T02:05:54;3.77;;;1.53;;
17866;SDS011;9059;49.934;8.650;2023-02-26T02:06:59;5.73;;;1.30;;
17866;SDS011;9059;49.934;8.650;2023-02-26T02:08:02;3.03;;;1.30;;
17866;SDS011;9059;49.934;8.650;2023-02-26T02:09:04;7.37;;;1.53;;
17866;SDS011;9059;49.934;8.650;2023-02-26T02:10:08;6.47;;;1.70;;
17866;SDS011;9059;49.934;8.650;2023-02-26T02:11:10;1.47;;;0.93;;
17866;SDS011;9059;49.934;8.650;2023-02-26T02:12:18;5.20;;;1.57;;
17866;SDS011;9059;49.934;8.650;2023-02-26T02:13:34;8.43;;;1.33;;
17866;SDS011;9059;49.934;8.650;2023-02-26T02:14:45;3.67;;;1.40;;
17866;SDS011;9059;49.934;8.650;2023-02-26T02:15:57;6.30;;;1.70;;
17866;SDS011;9059;49.934;8.650;2023-02-26T02:17:06;3.87;;;1.23;;
17866;SDS011;9059;49.934;8.650;2023-02-26T02:18:15;7.00;;;1.67;;
17866;SDS011;9059;49.934;8.650;2023-02-26T02:19:27;3.30;;;1.53;;
17866;SDS011;9059;49.934;8.650;2023-02-26T02:20:52;2.10;;;1.20;;
17866;SDS011;9059;49.934;8.650;2023-02-26T02:22:31;4.20;;;1.60;;
17866;SDS011;9059;49.934;8.650;2023-02-26T02:23:42;3.87;;;1.30;;
17866;SDS011;9059;49.934;8.650;2023-02-26T02:24:51;2.93;;;1.30;;
17866;SDS011;9059;49.934;8.650;2023-02-26T02:27:35;6.87;;;1.40;;
17866;SDS011;9059;49.934;8.650;2023-02-26T02:28:48;4.43;;;1.37;;
17866;SDS011;9059;49.934;8.650;2023-02-26T02:30:06;4.03;;;1.50;;
17866;SDS011;9059;49.934;8.650;2023-02-26T02:31:17;1.80;;;1.27;;
17866;SDS011;9059;49.934;8.650;2023-02-26T02:32:25;4.30;;;1.57;;
17866;SDS011;9059;49.934;8.650;2023-02-26T02:33:30;7.57;;;1.50;;
17866;SDS011;9059;49.934;8.650;2023-02-26T02:34:36;4.40;;;1.40;;
17866;SDS011;9059;49.934;8.650;2023-02-26T02:35:43;3.53;;;1.33;;
17866;SDS011;9059;49.934;8.650;2023-02-26T02:36:48;3.37;;;1.13;;
17866;SDS011;9059;49.934;8.650;2023-02-26T02:37:54;4.17;;;1.17;;
17866;SDS011;9059;49.934;8.650;2023-02-26T02:39:00;4.93;;;1.07;;
17866;SDS011;9059;49.934;8.650;2023-02-26T02:40:04;1.53;;;0.80;;
17866;SDS011;9059;49.934;8.650;2023-02-26T02:41:14;8.50;;;1.47;;
17866;SDS011;9059;49.934;8.650;2023-02-26T02:42:23;4.77;;;1.10;;
17866;SDS011;9059;49.934;8.650;2023-02-26T02:43:29;4.93;;;0.90;;
17866;SDS011;9059;49.934;8.650;2023-02-26T02:44:39;4.63;;;1.03;;
17866;SDS011;9059;49.934;8.650;2023-02-26T02:45:42;2.40;;;1.20;;
17866;SDS011;9059;49.934;8.650;2023-02-26T02:46:48;1.77;;;0.90;;
17866;SDS011;9059;49.934;8.650;2023-02-26T02:47:55;1.53;;;0.90;;
17866;SDS011;9059;49.934;8.650;2023-02-26T02:49:01;3.13;;;0.97;;
17866;SDS011;9059;49.934;8.650;2023-02-26T02:50:05;5.27;;;1.33;;
17866;SDS011;9059;49.934;8.650;2023-02-26T02:51:11;2.17;;;1.13;;
17866;SDS011;9059;49.934;8.650;2023-02-26T02:52:15;5.93;;;1.17;;
17866;SDS011;9059;49.934;8.650;2023-02-26T02:53:20;7.77;;;0.90;;
17866;SDS011;9059;49.934;8.650;2023-02-26T02:54:24;3.60;;;0.80;;
17866;SDS011;9059;49.934;8.650;2023-02-26T02:55:30;0.90;;;0.60;;
17866;SDS011;9059;49.934;8.650;2023-02-26T02:56:34;4.37;;;0.93;;
17866;SDS011;9059;49.934;8.650;2023-02-26T02:57:40;2.03;;;0.73;;
17866;SDS011;9059;49.934;8.650;2023-02-26T02:58:46;1.80;;;0.80;;
17866;SDS011;9059;49.934;8.650;2023-02-26T02:59:51;2.40;;;0.83;;
17866;SDS011;9059;49.934;8.650;2023-02-26T03:00:56;2.37;;;0.83;;
17866;SDS011;9059;49.934;8.650;2023-02-26T03:02:03;3.07;;;0.70;;
17866;SDS011;9059;49.934;8.650;2023-02-26T03:03:10;3.27;;;0.70;;
17866;SDS011;9059;49.934;8.650;2023-02-26T03:04:17;2.80;;;0.83;;
17866;SDS011;9059;49.934;8.650;2023-02-26T03:05:19;4.20;;;0.73;;
17866;SDS011;9059;49.934;8.650;2023-02-26T03:06:22;1.40;;;0.50;;
17866;SDS011;9059;49.934;8.650;2023-02-26T03:07:24;3.77;;;0.87;;
17866;SDS011;9059;49.934;8.650;2023-02-26T03:08:29;5.83;;;0.90;;
17866;SDS011;9059;49.934;8.650;2023-02-26T03:09:33;3.77;;;0.70;;
17866;SDS011;9059;49.934;8.650;2023-02-26T03:10:35;2.43;;;0.70;;
17866;SDS011;9059;49.934;8.650;2023-02-26T03:11:38;4.30;;;0.70;;
17866;SDS011;9059;49.934;8.650;2023-02-26T03:12:40;1.23;;;0.50;;
17866;SDS011;9059;49.934;8.650;2023-02-26T03:13:42;1.23;;;0.57;;
17866;SDS011;9059;49.934;8.650;2023-02-26T03:14:46;3.50;;;0.57;;
17866;SDS011;9059;49.934;8.650;2023-02-26T03:15:51;3.80;;;0.50;;
17866;SDS011;9059;49.934;8.650;2023-02-26T03:17:04;2.10;;;0.60;;
17866;SDS011;9059;49.934;8.650;2023-02-26T03:18:15;1.27;;;0.60;;
17866;SDS011;9059;49.934;8.650;2023-02-26T03:19:21;1.30;;;0.63;;
17866;SDS011;9059;49.934;8.650;2023-02-26T03:20:29;2.00;;;0.47;;
17866;SDS011;9059;49.934;8.650;2023-02-26T03:21:36;3.90;;;0.60;;
17866;SDS011;9059;49.934;8.650;2023-02-26T03:22:42;4.23;;;0.80;;
17866;SDS011;9059;49.934;8.650;2023-02-26T03:23:53;2.43;;;0.70;;
17866;SDS011;9059;49.934;8.650;2023-02-26T03:25:02;4.23;;;0.70;;
17866;SDS011;9059;49.934;8.650;2023-02-26T03:26:09;0.90;;;0.40;;
17866;SDS011;9059;49.934;8.650;2023-02-26T03:27:15;2.07;;;0.50;;
17866;SDS011;9059;49.934;8.650;2023-02-26T03:28:22;3.63;;;0.87;;
17866;SDS011;9059;49.934;8.650;2023-02-26T03:29:30;5.03;;;0.57;;
17866;SDS011;9059;49.934;8.650;2023-02-26T03:30:37;2.80;;;0.50;;
17866;SDS011;9059;49.934;8.650;2023-02-26T03:31:41;2.40;;;0.50;;
17866;SDS011;9059;49.934;8.650;2023-02-26T03:32:53;2.63;;;0.67;;
17866;SDS011;9059;49.934;8.650;2023-02-26T03:33:59;1.03;;;0.43;;
17866;SDS011;9059;49.934;8.650;2023-02-26T03:35:06;1.37;;;0.60;;
17866;SDS011;9059;49.934;8.650;2023-02-26T03:36:09;4.37;;;0.67;;
17866;SDS011;9059;49.934;8.650;2023-02-26T03:37:16;2.30;;;0.50;;
17866;SDS011;9059;49.934;8.650;2023-02-26T03:38:23;3.10;;;0.67;;
17866;SDS011;9059;49.934;8.650;2023-02-26T03:39:30;2.80;;;0.50;;
17866;SDS011;9059;49.934;8.650;2023-02-26T03:40:35;2.60;;;0.53;;
17866;SDS011;9059;49.934;8.650;2023-02-26T03:41:41;4.10;;;0.60;;
17866;SDS011;9059;49.934;8.650;2023-02-26T03:42:45;3.27;;;0.50;;
17866;SDS011;9059;49.934;8.650;2023-02-26T03:43:52;3.13;;;0.57;;
17866;SDS011;9059;49.934;8.650;2023-02-26T03:44:57;3.80;;;0.47;;
17866;SDS011;9059;49.934;8.650;2023-02-26T03:46:02;2.80;;;0.43;;
17866;SDS011;9059;49.934;8.650;2023-02-26T03:47:07;0.70;;;0.50;;
17866;SDS011;9059;49.934;8.650;2023-02-26T03:48:14;5.13;;;0.70;;
17866;SDS011;9059;49.934;8.650;2023-02-26T03:49:21;2.00;;;0.57;;
17866;SDS011;9059;49.934;8.650;2023-02-26T03:50:28;0.60;;;0.40;;
17866;SDS011;9059;49.934;8.650;2023-02-26T03:51:33;1.57;;;0.50;;
17866;SDS011;9059;49.934;8.650;2023-02-26T03:52:38;0.77;;;0.50;;
17866;SDS011;9059;49.934;8.650;2023-02-26T03:53:42;1.50;;;0.40;;
17866;SDS011;9059;49.934;8.650;2023-02-26T03:54:49;1.03;;;0.57;;
17866;SDS011;9059;49.934;8.650;2023-02-26T03:55:56;2.73;;;0.73;;
17866;SDS011;9059;49.934;8.650;2023-02-26T03:57:01;3.80;;;0.33;;
17866;SDS011;9059;49.934;8.650;2023-02-26T03:58:03;0.90;;;0.40;;
17866;SDS011;9059;49.934;8.650;2023-02-26T03:59:06;4.20;;;0.50;;
17866;SDS011;9059;49.934;8.650;2023-02-26T04:00:08;1.03;;;0.33;;
17866;SDS011;9059;49.934;8.650;2023-02-26T04:01:13;2.77;;;0.70;;
17866;SDS011;9059;49.934;8.650;2023-02-26T04:02:20;3.33;;;0.47;;
17866;SDS011;9059;49.934;8.650;2023-02-26T04:03:26;1.00;;;0.50;;
17866;SDS011;9059;49.934;8.650;2023-02-26T04:04:30;2.30;;;0.40;;
17866;SDS011;9059;49.934;8.650;2023-02-26T04:05:37;1.43;;;0.43;;
17866;SDS011;9059;49.934;8.650;2023-02-26T04:06:40;2.00;;;0.30;;
17866;SDS011;9059;49.934;8.650;2023-02-26T04:07:44;2.27;;;0.70;;
17866;SDS011;9059;49.934;8.650;2023-02-26T04:08:46;1.50;;;0.40;;
17866;SDS011;9059;49.934;8.650;2023-02-26T04:09:49;0.67;;;0.40;;
17866;SDS011;9059;49.934;8.650;2023-02-26T04:10:54;0.87;;;0.43;;
17866;SDS011;9059;49.934;8.650;2023-02-26T04:11:58;2.57;;;0.63;;
17866;SDS011;9059;49.934;8.650;2023-02-26T04:13:00;1.50;;;0.50;;
17866;SDS011;9059;49.934;8.650;2023-02-26T04:14:03;6.73;;;0.40;;
17866;SDS011;9059;49.934;8.650;2023-02-26T04:15:05;1.23;;;0.40;;
17866;SDS011;9059;49.934;8.650;2023-02-26T04:16:09;1.33;;;0.60;;
17866;SDS011;9059;49.934;8.650;2023-02-26T04:17:11;3.57;;;0.63;;
17866;SDS011;9059;49.934;8.650;2023-02-26T04:18:13;1.47;;;0.60;;
17866;SDS011;9059;49.934;8.650;2023-02-26T04:19:16;5.03;;;0.47;;
17866;SDS011;9059;49.934;8.650;2023-02-26T04:20:19;4.93;;;0.87;;
17866;SDS011;9059;49.934;8.650;2023-02-26T04:21:21;4.50;;;0.77;;
17866;SDS011;9059;49.934;8.650;2023-02-26T04:22:24;0.87;;;0.50;;
17866;SDS011;9059;49.934;8.650;2023-02-26T04:23:26;3.57;;;0.60;;
17866;SDS011;9059;49.934;8.650;2023-02-26T04:24:29;4.63;;;0.77;;
17866;SDS011;9059;49.934;8.650;2023-02-26T04:25:31;2.27;;;0.80;;
17866;SDS011;9059;49.934;8.650;2023-02-26T04:26:34;2.77;;;0.50;;
17866;SDS011;9059;49.934;8.650;2023-02-26T04:27:35;2.13;;;0.67;;
17866;SDS011;9059;49.934;8.650;2023-02-26T04:28:38;1.93;;;0.47;;
17866;SDS011;9059;49.934;8.650;2023-02-26T04:29:40;0.87;;;0.60;;
17866;SDS011;9059;49.934;8.650;2023-02-26T04:30:43;3.23;;;0.50;;
17866;SDS011;9059;49.934;8.650;2023-02-26T04:31:44;0.53;;;0.40;;
17866;SDS011;9059;49.934;8.650;2023-02-26T04:32:48;1.50;;;0.60;;
17866;SDS011;9059;49.934;8.650;2023-02-26T04:33:49;3.27;;;0.50;;
17866;SDS011;9059;49.934;8.650;2023-02-26T04:34:54;3.77;;;0.67;;
17866;SDS011;9059;49.934;8.650;2023-02-26T04:35:55;1.23;;;0.63;;
17866;SDS011;9059;49.934;8.650;2023-02-26T04:36:58;1.63;;;0.50;;
17866;SDS011;9059;49.934;8.650;2023-02-26T04:38:01;4.10;;;0.80;;
17866;SDS011;9059;49.934;8.650;2023-02-26T04:39:03;1.60;;;0.60;;
17866;SDS011;9059;49.934;8.650;2023-02-26T04:40:06;2.20;;;0.80;;
17866;SDS011;9059;49.934;8.650;2023-02-26T04:41:08;0.97;;;0.57;;
17866;SDS011;9059;49.934;8.650;2023-02-26T04:42:11;1.67;;;0.60;;
17866;SDS011;9059;49.934;8.650;2023-02-26T04:43:13;3.80;;;0.77;;
17866;SDS011;9059;49.934;8.650;2023-02-26T04:44:15;1.97;;;0.40;;
17866;SDS011;9059;49.934;8.650;2023-02-26T04:45:19;2.70;;;1.20;;
17866;SDS011;9059;49.934;8.650;2023-02-26T04:46:20;1.73;;;0.70;;
17866;SDS011;9059;49.934;8.650;2023-02-26T04:47:24;2.63;;;0.70;;
17866;SDS011;9059;49.934;8.650;2023-02-26T04:48:25;1.93;;;0.60;;
17866;SDS011;9059;49.934;8.650;2023-02-26T04:49:28;4.20;;;0.60;;
17866;SDS011;9059;49.934;8.650;2023-02-26T04:50:31;0.60;;;0.50;;
17866;SDS011;9059;49.934;8.650;2023-02-26T04:51:34;1.40;;;0.57;;
17866;SDS011;9059;49.934;8.650;2023-02-26T04:52:36;2.13;;;0.80;;
17866;SDS011;9059;49.934;8.650;2023-02-26T04:53:39;1.57;;;0.60;;
17866;SDS011;9059;49.934;8.650;2023-02-26T04:54:40;2.73;;;0.53;;
17866;SDS011;9059;49.934;8.650;2023-02-26T04:55:43;2.73;;;0.60;;
17866;SDS011;9059;49.934;8.650;2023-02-26T04:56:47;4.03;;;0.70;;
17866;SDS011;9059;49.934;8.650;2023-02-26T04:57:50;0.60;;;0.50;;
17866;SDS011;9059;49.934;8.650;2023-02-26T04:58:53;2.10;;;0.60;;
17866;SDS011;9059;49.934;8.650;2023-02-26T04:59:55;1.07;;;0.60;;
17866;SDS011;9059;49.934;8.650;2023-02-26T05:00:57;4.27;;;0.90;;
17866;SDS011;9059;49.934;8.650;2023-02-26T05:02:00;4.23;;;0.80;;
17866;SDS011;9059;49.934;8.650;2023-02-26T05:03:02;1.70;;;0.60;;
17866;SDS011;9059;49.934;8.650;2023-02-26T05:04:05;1.70;;;0.70;;
17866;SDS011;9059;49.934;8.650;2023-02-26T05:05:07;3.43;;;0.83;;
17866;SDS011;9059;49.934;8.650;2023-02-26T05:06:12;1.90;;;0.87;;
17866;SDS011;9059;49.934;8.650;2023-02-26T05:07:15;2.17;;;0.73;;
17866;SDS011;9059;49.934;8.650;2023-02-26T05:08:17;2.03;;;0.90;;
17866;SDS011;9059;49.934;8.650;2023-02-26T05:09:19;0.97;;;0.60;;
17866;SDS011;9059;49.934;8.650;2023-02-26T05:10:22;4.07;;;0.77;;
17866;SDS011;9059;49.934;8.650;2023-02-26T05:11:24;6.37;;;0.97;;
17866;SDS011;9059;49.934;8.650;2023-02-26T05:12:27;3.47;;;1.00;;
17866;SDS011;9059;49.934;8.650;2023-02-26T05:13:28;2.20;;;0.70;;
17866;SDS011;9059;49.934;8.650;2023-02-26T05:14:31;3.73;;;0.87;;
17866;SDS011;9059;49.934;8.650;2023-02-26T05:15:33;3.87;;;0.77;;
17866;SDS011;9059;49.934;8.650;2023-02-26T05:16:35;2.00;;;0.60;;
17866;SDS011;9059;49.934;8.650;2023-02-26T05:17:37;1.33;;;0.80;;
17866;SDS011;9059;49.934;8.650;2023-02-26T05:18:40;4.37;;;0.73;;
17866;SDS011;9059;49.934;8.650;2023-02-26T05:19:42;3.87;;;0.70;;
17866;SDS011;9059;49.934;8.650;2023-02-26T05:20:44;2.97;;;0.77;;
17866;SDS011;9059;49.934;8.650;2023-02-26T05:21:47;4.10;;;0.87;;
17866;SDS011;9059;49.934;8.650;2023-02-26T05:22:50;3.57;;;0.90;;
17866;SDS011;9059;49.934;8.650;2023-02-26T05:23:52;3.90;;;0.60;;
17866;SDS011;9059;49.934;8.650;2023-02-26T05:24:54;1.33;;;0.77;;
17866;SDS011;9059;49.934;8.650;2023-02-26T05:25:56;4.80;;;1.10;;
17866;SDS011;9059;49.934;8.650;2023-02-26T05:26:59;2.90;;;0.80;;
17866;SDS011;9059;49.934;8.650;2023-02-26T05:28:01;3.40;;;1.20;;
17866;SDS011;9059;49.934;8.650;2023-02-26T05:29:04;3.47;;;0.90;;
17866;SDS011;9059;49.934;8.650;2023-02-26T05:30:07;3.47;;;0.70;;
17866;SDS011;9059;49.934;8.650;2023-02-26T05:31:12;3.00;;;1.03;;
17866;SDS011;9059;49.934;8.650;2023-02-26T05:32:14;2.43;;;0.70;;
17866;SDS011;9059;49.934;8.650;2023-02-26T05:33:17;2.93;;;0.93;;
17866;SDS011;9059;49.934;8.650;2023-02-26T05:34:19;2.03;;;0.90;;
17866;SDS011;9059;49.934;8.650;2023-02-26T05:35:21;3.03;;;1.20;;
17866;SDS011;9059;49.934;8.650;2023-02-26T05:36:23;2.90;;;0.90;;
17866;SDS011;9059;49.934;8.650;2023-02-26T05:37:28;3.80;;;1.30;;
17866;SDS011;9059;49.934;8.650;2023-02-26T05:38:29;1.40;;;0.73;;
17866;SDS011;9059;49.934;8.650;2023-02-26T05:39:32;1.67;;;0.70;;
17866;SDS011;9059;49.934;8.650;2023-02-26T05:40:34;3.07;;;0.97;;
17866;SDS011;9059;49.934;8.650;2023-02-26T05:41:37;2.70;;;0.80;;
17866;SDS011;9059;49.934;8.650;2023-02-26T05:42:38;4.10;;;0.80;;
17866;SDS011;9059;49.934;8.650;2023-02-26T05:43:41;1.73;;;0.80;;
17866;SDS011;9059;49.934;8.650;2023-02-26T05:44:43;1.33;;;0.60;;
17866;SDS011;9059;49.934;8.650;2023-02-26T05:45:46;4.03;;;0.80;;
17866;SDS011;9059;49.934;8.650;2023-02-26T05:46:50;3.83;;;0.80;;
17866;SDS011;9059;49.934;8.650;2023-02-26T05:47:52;3.47;;;1.10;;
17866;SDS011;9059;49.934;8.650;2023-02-26T05:48:55;3.03;;;0.93;;
17866;SDS011;9059;49.934;8.650;2023-02-26T05:49:56;4.03;;;0.87;;
17866;SDS011;9059;49.934;8.650;2023-02-26T05:50:59;2.87;;;0.73;;
17866;SDS011;9059;49.934;8.650;2023-02-26T05:52:01;5.27;;;0.83;;
17866;SDS011;9059;49.934;8.650;2023-02-26T05:53:05;1.73;;;0.80;;
17866;SDS011;9059;49.934;8.650;2023-02-26T05:54:07;3.07;;;0.70;;
17866;SDS011;9059;49.934;8.650;2023-02-26T05:55:11;5.03;;;0.80;;
17866;SDS011;9059;49.934;8.650;2023-02-26T05:56:12;4.57;;;0.93;;
17866;SDS011;9059;49.934;8.650;2023-02-26T05:57:18;3.57;;;1.10;;
17866;SDS011;9059;49.934;8.650;2023-02-26T05:58:19;1.47;;;0.80;;
17866;SDS011;9059;49.934;8.650;2023-02-26T05:59:22;1.97;;;1.00;;
17866;SDS011;9059;49.934;8.650;2023-02-26T06:00:24;4.37;;;0.90;;
17866;SDS011;9059;49.934;8.650;2023-02-26T06:01:27;2.43;;;1.10;;
17866;SDS011;9059;49.934;8.650;2023-02-26T06:02:29;4.20;;;1.47;;
17866;SDS011;9059;49.934;8.650;2023-02-26T06:03:31;3.30;;;1.00;;
17866;SDS011;9059;49.934;8.650;2023-02-26T06:04:33;2.40;;;0.90;;
17866;SDS011;9059;49.934;8.650;2023-02-26T06:05:37;1.50;;;0.80;;
17866;SDS011;9059;49.934;8.650;2023-02-26T06:06:38;6.13;;;1.00;;
17866;SDS011;9059;49.934;8.650;2023-02-26T06:07:41;4.77;;;1.10;;
17866;SDS011;9059;49.934;8.650;2023-02-26T06:08:44;2.23;;;1.37;;
17866;SDS011;9059;49.934;8.650;2023-02-26T06:09:47;3.07;;;1.13;;
17866;SDS011;9059;49.934;8.650;2023-02-26T06:10:49;4.33;;;0.90;;
17866;SDS011;9059;49.934;8.650;2023-02-26T06:11:52;3.83;;;0.87;;
17866;SDS011;9059;49.934;8.650;2023-02-26T06:12:54;3.33;;;1.07;;
17866;SDS011;9059;49.934;8.650;2023-02-26T06:13:57;2.93;;;0.77;;
17866;SDS011;9059;49.934;8.650;2023-02-26T06:14:58;4.33;;;1.03;;
17866;SDS011;9059;49.934;8.650;2023-02-26T06:16:01;2.87;;;0.90;;
17866;SDS011;9059;49.934;8.650;2023-02-26T06:17:03;6.57;;;1.27;;
17866;SDS011;9059;49.934;8.650;2023-02-26T06:18:06;2.37;;;0.90;;
17866;SDS011;9059;49.934;8.650;2023-02-26T06:19:08;3.77;;;0.87;;
17866;SDS011;9059;49.934;8.650;2023-02-26T06:20:11;3.20;;;0.80;;
17866;SDS011;9059;49.934;8.650;2023-02-26T06:21:13;8.57;;;1.23;;
17866;SDS011;9059;49.934;8.650;2023-02-26T06:22:16;2.90;;;0.73;;
17866;SDS011;9059;49.934;8.650;2023-02-26T06:23:18;2.53;;;0.90;;
17866;SDS011;9059;49.934;8.650;2023-02-26T06:24:22;2.50;;;0.87;;
17866;SDS011;9059;49.934;8.650;2023-02-26T06:25:24;2.77;;;1.10;;
17866;SDS011;9059;49.934;8.650;2023-02-26T06:26:26;6.47;;;0.90;;
17866;SDS011;9059;49.934;8.650;2023-02-26T06:27:29;2.13;;;0.90;;
17866;SDS011;9059;49.934;8.650;2023-02-26T06:28:32;3.73;;;1.10;;
17866;SDS011;9059;49.934;8.650;2023-02-26T06:29:33;2.33;;;0.90;;
17866;SDS011;9059;49.934;8.650;2023-02-26T06:30:37;2.00;;;1.00;;
17866;SDS011;9059;49.934;8.650;2023-02-26T06:31:39;1.97;;;0.90;;
17866;SDS011;9059;49.934;8.650;2023-02-26T06:32:42;4.63;;;0.90;;
17866;SDS011;9059;49.934;8.650;2023-02-26T06:33:45;2.40;;;0.80;;
17866;SDS011;9059;49.934;8.650;2023-02-26T06:34:48;2.23;;;0.90;;
17866;SDS011;9059;49.934;8.650;2023-02-26T06:35:50;2.00;;;0.70;;
17866;SDS011;9059;49.934;8.650;2023-02-26T06:36:53;2.70;;;1.10;;
17866;SDS011;9059;49.934;8.650;2023-02-26T06:37:54;2.17;;;0.80;;